createdAt,value
2018-12-22T00:01:55.223Z,10.90
2018-12-22T00:04:22.744Z,10.90
2018-12-22T00:06:50.235Z,10.90
2018-12-22T00:09:17.747Z,11.00
2018-12-22T00:11:45.237Z,11.00
2018-12-22T00:14:12.751Z,11.10
2018-12-22T00:16:40.246Z,11.10
2018-12-22T00:19:07.737Z,11.10
2018-12-22T00:21:35.251Z,11.10
2018-12-22T00:24:02.739Z,11.20
2018-12-22T00:26:30.255Z,11.10
2018-12-22T00:28:57.751Z,11.20
2018-12-22T00:31:25.267Z,11.10
2018-12-22T00:33:52.759Z,11.10
2018-12-22T00:36:20.246Z,11.10
2018-12-22T00:38:47.760Z,11.10
2018-12-22T00:41:15.256Z,11.10
2018-12-22T00:43:42.771Z,11.20
2018-12-22T00:46:10.262Z,11.20
2018-12-22T00:48:37.775Z,11.20
2018-12-22T00:51:05.269Z,11.20
2018-12-22T00:53:32.765Z,11.20
2018-12-22T00:56:00.283Z,11.20
2018-12-22T00:58:30.872Z,11.10
2018-12-22T01:00:57.308Z,11.10
2018-12-22T01:03:24.804Z,11.10
2018-12-22T01:05:52.324Z,11.10
2018-12-22T01:08:19.822Z,11.10
2018-12-22T01:10:47.335Z,11.10
2018-12-22T01:13:14.828Z,11.10
2018-12-22T01:15:42.346Z,11.20
2018-12-22T01:18:09.924Z,11.20
2018-12-22T01:20:37.441Z,11.10
2018-12-22T01:23:04.931Z,11.10
2018-12-22T01:25:32.450Z,11.10
2018-12-22T01:27:59.943Z,11.20
2018-12-22T01:30:27.439Z,11.10
2018-12-22T01:32:54.951Z,11.10
2018-12-22T01:35:22.835Z,11.20
2018-12-22T01:37:50.352Z,11.20
2018-12-22T01:40:17.848Z,11.20
2018-12-22T01:42:45.367Z,11.20
2018-12-22T01:45:12.859Z,11.20
2018-12-22T01:47:40.359Z,11.20
2018-12-22T01:50:08.035Z,11.20
2018-12-22T01:52:35.529Z,11.20
2018-12-22T01:55:03.804Z,11.20
2018-12-22T01:57:31.299Z,11.20
2018-12-22T01:59:58.791Z,11.20
2018-12-22T02:02:26.303Z,11.20
2018-12-22T02:04:53.803Z,11.20
2018-12-22T02:07:21.319Z,11.20
2018-12-22T02:09:48.811Z,11.20
2018-12-22T02:12:16.324Z,11.20
2018-12-22T02:14:43.821Z,11.20
2018-12-22T02:17:11.315Z,11.20
2018-12-22T02:19:39.111Z,11.20
2018-12-22T02:22:06.664Z,11.20
2018-12-22T02:24:34.243Z,11.20
2018-12-22T02:27:01.735Z,11.20
2018-12-22T02:29:29.247Z,11.20
2018-12-22T02:31:56.736Z,11.20
2018-12-22T02:34:24.256Z,11.20
2018-12-22T02:36:51.760Z,11.20
2018-12-22T02:39:19.255Z,11.20
2018-12-22T02:41:46.775Z,11.20
2018-12-22T02:44:14.272Z,11.20
2018-12-22T02:46:41.793Z,11.30
2018-12-22T02:49:09.288Z,11.30
2018-12-22T02:51:36.980Z,11.30
2018-12-22T02:54:04.471Z,11.30
2018-12-22T02:56:31.965Z,11.40
2018-12-22T02:59:05.903Z,11.40
2018-12-22T03:01:29.005Z,11.30
2018-12-22T03:03:56.599Z,11.30
2018-12-22T03:06:24.088Z,11.30
2018-12-22T03:08:51.603Z,11.30
2018-12-22T03:11:19.094Z,11.30
2018-12-22T03:13:46.616Z,11.40
2018-12-22T03:16:14.328Z,11.40
2018-12-22T03:18:41.819Z,11.40
2018-12-22T03:21:09.337Z,11.40
2018-12-22T03:23:36.827Z,11.40
2018-12-22T03:26:04.351Z,11.40
2018-12-22T03:28:31.959Z,11.40
2018-12-22T03:30:59.476Z,11.40
2018-12-22T03:33:26.971Z,11.40
2018-12-22T03:35:54.482Z,11.40
2018-12-22T03:38:21.980Z,11.40
2018-12-22T03:40:49.491Z,11.40
2018-12-22T03:43:16.983Z,11.40
2018-12-22T03:45:44.503Z,11.40
2018-12-22T03:48:12.000Z,11.40
2018-12-22T03:50:39.672Z,11.40
2018-12-22T03:53:07.201Z,11.50
2018-12-22T03:55:34.701Z,11.50
2018-12-22T03:58:02.210Z,11.50
2018-12-22T04:00:29.708Z,11.40
2018-12-22T04:02:57.233Z,11.50
2018-12-22T04:05:24.723Z,11.40
2018-12-22T04:07:52.236Z,11.50
2018-12-22T04:10:19.729Z,11.50
2018-12-22T04:12:47.242Z,11.40
2018-12-22T04:15:14.816Z,11.40
2018-12-22T04:17:42.316Z,11.40
2018-12-22T04:20:09.833Z,11.40
2018-12-22T04:22:37.377Z,11.30
2018-12-22T04:25:05.060Z,11.30
2018-12-22T04:27:32.554Z,11.30
2018-12-22T04:30:00.070Z,11.20
2018-12-22T04:32:27.611Z,11.20
2018-12-22T04:34:55.112Z,11.20
2018-12-22T04:37:22.608Z,11.20
2018-12-22T04:39:50.123Z,11.20
2018-12-22T04:42:17.620Z,11.10
2018-12-22T04:44:45.139Z,11.10
2018-12-22T04:47:12.633Z,11.10
2018-12-22T04:49:40.154Z,11.10
2018-12-22T04:52:07.647Z,11.10
2018-12-22T04:54:35.155Z,11.10
2018-12-22T04:57:02.648Z,11.10
2018-12-22T04:59:30.163Z,11.10
2018-12-22T05:01:57.741Z,11.10
2018-12-22T05:04:25.263Z,11.10
2018-12-22T05:06:52.760Z,11.00
2018-12-22T05:09:20.279Z,11.00
2018-12-22T05:11:47.783Z,11.00
2018-12-22T05:14:15.307Z,10.90
2018-12-22T05:16:42.804Z,10.90
2018-12-22T05:19:10.299Z,10.90
2018-12-22T05:21:37.876Z,10.90
2018-12-22T05:24:05.371Z,10.80
2018-12-22T05:26:32.882Z,10.80
2018-12-22T05:29:00.371Z,10.80
2018-12-22T05:31:27.879Z,10.70
2018-12-22T05:33:55.377Z,10.70
2018-12-22T05:36:22.966Z,10.70
2018-12-22T05:38:50.455Z,10.70
2018-12-22T05:41:19.780Z,10.70
2018-12-22T05:43:47.487Z,10.70
2018-12-22T05:46:14.998Z,10.70
2018-12-22T05:48:42.516Z,10.70
2018-12-22T05:51:10.021Z,10.70
2018-12-22T05:53:37.534Z,10.70
2018-12-22T05:56:05.097Z,10.70
2018-12-22T05:58:32.655Z,10.70
2018-12-22T06:01:00.145Z,10.60
2018-12-22T06:03:27.930Z,10.60
2018-12-22T06:05:55.446Z,10.60
2018-12-22T06:08:23.019Z,10.60
2018-12-22T06:10:50.538Z,10.70
2018-12-22T06:13:18.036Z,10.70
2018-12-22T06:15:45.547Z,10.80
2018-12-22T06:18:13.035Z,10.80
2018-12-22T06:20:40.546Z,10.90
2018-12-22T06:23:08.036Z,10.90
2018-12-22T06:25:35.549Z,11.00
2018-12-22T06:28:03.155Z,11.00
2018-12-22T06:30:30.779Z,11.10
2018-12-22T06:32:58.272Z,11.10
2018-12-22T06:35:25.766Z,11.10
2018-12-22T06:37:53.278Z,11.10
2018-12-22T06:40:20.771Z,11.10
2018-12-22T06:42:48.292Z,11.10
2018-12-22T06:45:15.789Z,11.10
2018-12-22T06:47:43.309Z,11.10
2018-12-22T06:50:10.803Z,11.20
2018-12-22T06:52:38.295Z,11.20
2018-12-22T06:55:05.807Z,11.20
2018-12-22T06:57:33.308Z,11.20
2018-12-22T07:00:00.823Z,11.20
2018-12-22T07:02:28.320Z,11.20
2018-12-22T07:04:55.844Z,11.30
2018-12-22T07:07:23.340Z,11.30
2018-12-22T07:09:50.831Z,11.30
2018-12-22T07:12:18.428Z,11.30
2018-12-22T07:14:45.918Z,11.30
2018-12-22T07:17:13.438Z,11.30
2018-12-22T07:19:40.932Z,11.30
2018-12-22T07:22:08.443Z,11.30
2018-12-22T07:24:35.935Z,11.30
2018-12-22T07:27:03.446Z,11.30
2018-12-22T07:29:30.941Z,11.30
2018-12-22T07:31:58.463Z,11.40
2018-12-22T07:34:25.962Z,11.40
2018-12-22T07:36:53.478Z,11.40
2018-12-22T07:39:20.967Z,11.40
2018-12-22T07:41:48.484Z,11.50
2018-12-22T07:44:15.975Z,11.50
2018-12-22T07:46:43.467Z,11.60
2018-12-22T07:49:10.988Z,11.60
2018-12-22T07:51:38.475Z,11.60
2018-12-22T07:54:05.986Z,11.70
2018-12-22T07:56:33.555Z,11.70
2018-12-22T07:59:01.156Z,11.80
2018-12-22T08:01:28.656Z,11.70
2018-12-22T08:03:56.173Z,11.60
2018-12-22T08:06:23.658Z,11.40
2018-12-22T08:08:51.151Z,11.30
2018-12-22T08:11:18.667Z,11.20
2018-12-22T08:13:46.160Z,11.20
2018-12-22T08:16:13.671Z,11.20
2018-12-22T08:18:41.939Z,11.30
2018-12-22T08:21:09.460Z,11.40
2018-12-22T08:23:36.951Z,11.40
2018-12-22T08:26:04.446Z,11.40
2018-12-22T08:28:31.963Z,11.50
2018-12-22T08:30:59.459Z,11.60
2018-12-22T08:33:26.984Z,11.60
2018-12-22T08:35:54.475Z,11.60
2018-12-22T08:38:21.996Z,11.70
2018-12-22T08:40:49.487Z,11.80
2018-12-22T08:43:16.980Z,11.80
2018-12-22T08:45:44.491Z,11.80
2018-12-22T08:48:11.988Z,11.80
2018-12-22T08:50:39.499Z,11.90
2018-12-22T08:53:06.987Z,12.00
2018-12-22T08:55:34.499Z,12.00
2018-12-22T08:58:02.075Z,12.00
2018-12-22T09:00:29.566Z,11.90
2018-12-22T09:02:57.080Z,11.90
2018-12-22T09:05:25.031Z,11.90
2018-12-22T09:07:52.543Z,11.90
2018-12-22T09:10:20.115Z,11.90
2018-12-22T09:12:47.711Z,11.80
2018-12-22T09:15:15.211Z,11.90
2018-12-22T09:17:42.727Z,11.90
2018-12-22T09:20:10.219Z,11.90
2018-12-22T09:22:37.793Z,11.90
2018-12-22T09:25:07.567Z,11.90
2018-12-22T09:27:35.069Z,11.90
2018-12-22T09:30:02.669Z,11.90
2018-12-22T09:32:30.164Z,11.80
2018-12-22T09:34:57.684Z,11.80
2018-12-22T09:37:25.180Z,11.70
2018-12-22T09:39:52.675Z,11.60
2018-12-22T09:42:20.191Z,11.50
2018-12-22T09:44:47.688Z,11.50
2018-12-22T09:47:15.204Z,11.60
2018-12-22T09:49:42.695Z,11.60
2018-12-22T09:52:10.211Z,11.70
2018-12-22T09:54:37.781Z,11.80
2018-12-22T09:57:05.303Z,11.90
2018-12-22T09:59:32.809Z,11.90
2018-12-22T10:02:00.308Z,12.30
2018-12-22T10:04:27.828Z,12.30
2018-12-22T10:06:55.319Z,12.30
2018-12-22T10:09:22.890Z,12.30
2018-12-22T10:11:50.455Z,12.80
2018-12-22T10:14:17.955Z,13.40
2018-12-22T10:16:45.467Z,13.80
2018-12-22T10:19:12.968Z,13.50
2018-12-22T10:21:40.483Z,12.90
2018-12-22T10:24:07.975Z,12.40
2018-12-22T10:26:35.496Z,11.90
2018-12-22T10:29:02.997Z,11.50
2018-12-22T10:31:30.491Z,11.20
2018-12-22T10:33:58.008Z,11.20
2018-12-22T10:36:25.499Z,11.40
2018-12-22T10:38:53.016Z,11.60
2018-12-22T10:41:20.503Z,11.60
2018-12-22T10:43:48.020Z,11.60
2018-12-22T10:46:15.511Z,11.80
2018-12-22T10:48:43.033Z,12.10
2018-12-22T10:51:10.613Z,12.40
2018-12-22T10:53:38.219Z,12.50
2018-12-22T10:56:05.731Z,12.60
2018-12-22T10:58:33.501Z,12.50
2018-12-22T11:01:01.020Z,12.70
2018-12-22T11:03:28.517Z,12.80
2018-12-22T11:05:56.037Z,12.60
2018-12-22T11:08:23.536Z,12.40
2018-12-22T11:10:51.056Z,12.40
2018-12-22T11:13:18.551Z,12.50
2018-12-22T11:15:46.042Z,12.70
2018-12-22T11:18:13.559Z,12.60
2018-12-22T11:20:41.055Z,12.40
2018-12-22T11:23:08.567Z,12.30
2018-12-22T11:25:36.055Z,11.90
2018-12-22T11:28:03.576Z,11.50
2018-12-22T11:30:31.142Z,11.10
2018-12-22T11:32:58.655Z,10.80
2018-12-22T11:35:26.160Z,10.40
2018-12-22T11:37:53.680Z,10.30
2018-12-22T11:40:21.170Z,10.20
2018-12-22T11:42:48.664Z,10.10
2018-12-22T11:45:16.251Z,10.10
2018-12-22T11:47:46.208Z,10.00
2018-12-22T11:50:18.476Z,10.00
2018-12-22T11:52:45.975Z,10.00
2018-12-22T11:55:13.464Z,10.00
2018-12-22T11:57:40.979Z,10.20
2018-12-22T12:00:09.833Z,10.30
2018-12-22T12:02:37.349Z,10.60
2018-12-22T12:05:08.208Z,11.00
2018-12-22T12:07:35.806Z,11.50
2018-12-22T12:10:05.158Z,12.30
2018-12-22T12:12:32.651Z,13.00
2018-12-22T12:15:00.258Z,13.50
2018-12-22T12:17:32.767Z,13.90
2018-12-22T12:20:00.308Z,13.90
2018-12-22T12:22:27.805Z,13.70
2018-12-22T12:24:55.320Z,13.70
2018-12-22T12:27:22.816Z,13.80
2018-12-22T12:29:50.335Z,13.70
2018-12-22T12:32:17.827Z,13.60
2018-12-22T12:34:45.350Z,13.20
2018-12-22T12:37:12.843Z,12.90
2018-12-22T12:39:40.340Z,12.60
2018-12-22T12:42:07.855Z,12.20
2018-12-22T12:44:35.419Z,11.80
2018-12-22T12:47:02.949Z,11.60
2018-12-22T12:49:30.525Z,11.50
2018-12-22T12:51:58.044Z,11.80
2018-12-22T12:54:25.535Z,12.20
2018-12-22T12:56:53.056Z,12.30
2018-12-22T12:59:20.548Z,12.20
2018-12-22T13:01:48.039Z,12.10
2018-12-22T13:04:15.555Z,12.40
2018-12-22T13:06:43.047Z,12.60
2018-12-22T13:09:10.559Z,12.90
2018-12-22T13:11:38.063Z,13.10
2018-12-22T13:14:07.758Z,13.20
2018-12-22T13:16:35.095Z,13.30
2018-12-22T13:19:02.611Z,13.20
2018-12-22T13:21:30.108Z,13.10
2018-12-22T13:23:57.679Z,12.80
2018-12-22T13:26:25.251Z,12.40
2018-12-22T13:28:52.739Z,12.10
2018-12-22T13:31:20.252Z,12.10
2018-12-22T13:33:47.746Z,12.30
2018-12-22T13:36:15.243Z,12.60
2018-12-22T13:38:43.040Z,12.70
2018-12-22T13:41:10.528Z,12.50
2018-12-22T13:43:38.055Z,12.30
2018-12-22T13:46:05.543Z,12.30
2018-12-22T13:48:33.305Z,12.10
2018-12-22T13:51:00.883Z,12.00
2018-12-22T13:53:28.378Z,11.90
2018-12-22T13:55:55.892Z,11.80
2018-12-22T13:58:23.463Z,11.70
2018-12-22T14:00:50.981Z,11.60
2018-12-22T14:03:18.551Z,11.60
2018-12-22T14:05:46.043Z,11.50
2018-12-22T14:08:13.555Z,11.50
2018-12-22T14:10:41.044Z,11.50
2018-12-22T14:13:08.563Z,11.50
2018-12-22T14:15:37.015Z,11.40
2018-12-22T14:18:14.163Z,11.40
2018-12-22T14:20:41.660Z,11.20
2018-12-22T14:23:09.154Z,11.20
2018-12-22T14:25:36.672Z,11.20
2018-12-22T14:28:04.171Z,11.10
2018-12-22T14:30:31.759Z,11.10
2018-12-22T14:32:59.250Z,11.00
2018-12-22T14:35:30.631Z,11.00
2018-12-22T14:37:58.207Z,11.00
2018-12-22T14:40:25.727Z,10.90
2018-12-22T14:42:53.225Z,10.90
2018-12-22T14:45:20.729Z,10.90
2018-12-22T14:47:48.257Z,10.90
2018-12-22T14:50:15.747Z,10.90
2018-12-22T14:52:43.259Z,10.90
2018-12-22T14:55:11.808Z,10.90
2018-12-22T14:57:46.020Z,10.90
2018-12-22T15:00:15.883Z,10.90
2018-12-22T15:02:43.464Z,10.80
2018-12-22T15:05:10.975Z,10.80
2018-12-22T15:07:38.472Z,10.80
2018-12-22T15:10:08.852Z,10.80
2018-12-22T15:12:36.346Z,10.80
2018-12-22T15:15:07.319Z,10.80
2018-12-22T15:17:34.807Z,10.80
2018-12-22T15:20:03.266Z,10.80
2018-12-22T15:22:30.787Z,10.80
2018-12-22T15:24:58.283Z,10.80
2018-12-22T15:27:25.800Z,10.70
2018-12-22T15:29:53.290Z,10.70
2018-12-22T15:32:20.803Z,10.70
2018-12-22T15:34:48.293Z,10.60
2018-12-22T15:37:15.786Z,10.50
2018-12-22T15:39:43.310Z,10.50
2018-12-22T15:42:10.804Z,10.50
2018-12-22T15:44:38.328Z,10.50
2018-12-22T15:47:05.819Z,10.40
2018-12-22T15:49:33.401Z,10.40
2018-12-22T15:52:00.951Z,10.40
2018-12-22T15:54:28.443Z,10.30
2018-12-22T15:56:55.963Z,10.30
2018-12-22T15:59:23.455Z,10.30
2018-12-22T16:01:50.976Z,10.20
2018-12-22T16:04:18.473Z,10.20
2018-12-22T16:06:45.988Z,10.10
2018-12-22T16:09:13.478Z,10.10
2018-12-22T16:11:40.997Z,10.10
2018-12-22T16:14:08.491Z,10.00
2018-12-22T16:16:35.979Z,10.00
2018-12-22T16:19:03.507Z,10.00
2018-12-22T16:21:31.005Z,10.00
2018-12-22T16:23:58.596Z,9.90
2018-12-22T16:26:26.168Z,9.90
2018-12-22T16:28:54.441Z,9.90
2018-12-22T16:31:21.936Z,9.80
2018-12-22T16:33:49.452Z,9.80
2018-12-22T16:36:16.948Z,9.80
2018-12-22T16:38:44.435Z,9.80
2018-12-22T16:41:12.028Z,9.70
2018-12-22T16:43:39.776Z,9.70
2018-12-22T16:46:07.290Z,9.70
2018-12-22T16:48:34.776Z,9.70
2018-12-22T16:51:02.283Z,9.70
2018-12-22T16:53:29.901Z,9.60
2018-12-22T16:55:57.487Z,9.60
2018-12-22T16:58:26.868Z,9.60
2018-12-22T17:01:02.199Z,9.60
2018-12-22T17:03:31.171Z,9.60
2018-12-22T17:06:00.915Z,9.60
2018-12-22T17:08:28.399Z,9.60
2018-12-22T17:10:58.167Z,9.50
2018-12-22T17:13:25.779Z,9.50
2018-12-22T17:15:53.342Z,9.50
2018-12-22T17:18:21.311Z,9.50
2018-12-22T17:20:52.063Z,9.50
2018-12-22T17:23:31.199Z,9.50
2018-12-22T17:25:59.947Z,9.50
2018-12-22T17:28:28.528Z,9.50
2018-12-22T17:30:56.269Z,9.50
2018-12-22T17:33:23.780Z,9.50
2018-12-22T17:35:51.267Z,9.50
2018-12-22T17:38:20.661Z,9.40
2018-12-22T17:40:48.474Z,9.40
2018-12-22T17:43:15.991Z,9.40
2018-12-22T17:45:43.481Z,9.40
2018-12-22T17:48:10.972Z,9.40
2018-12-22T17:50:38.489Z,9.40
2018-12-22T17:53:05.979Z,9.40
2018-12-22T17:55:33.579Z,9.40
2018-12-22T17:58:01.145Z,9.40
2018-12-22T18:00:28.656Z,9.40
2018-12-22T18:02:56.147Z,9.40
2018-12-22T18:05:23.635Z,9.40
2018-12-22T18:07:51.147Z,9.40
2018-12-22T18:10:18.635Z,9.40
2018-12-22T18:12:46.143Z,9.40
2018-12-22T18:15:17.828Z,9.40
2018-12-22T18:17:45.343Z,9.40
2018-12-22T18:20:12.834Z,9.40
2018-12-22T18:22:40.329Z,9.50
2018-12-22T18:25:13.841Z,9.50
2018-12-22T18:27:41.331Z,9.50
2018-12-22T18:30:11.304Z,9.50
2018-12-22T18:32:39.547Z,9.40
2018-12-22T18:35:09.415Z,9.50
2018-12-22T18:37:36.979Z,9.50
2018-12-22T18:40:11.579Z,9.40
2018-12-22T18:42:39.148Z,9.50
2018-12-22T18:45:09.901Z,9.40
2018-12-22T18:47:37.419Z,9.40
2018-12-22T18:50:26.628Z,9.40
2018-12-22T18:52:54.125Z,9.40
2018-12-22T18:55:21.621Z,9.50
2018-12-22T18:57:50.483Z,9.50
2018-12-22T19:00:20.996Z,9.50
2018-12-22T19:02:48.583Z,9.50
2018-12-22T19:05:17.134Z,9.50
2018-12-22T19:07:44.619Z,9.50
2018-12-22T19:10:24.419Z,9.60
2018-12-22T19:12:51.931Z,9.60
2018-12-22T19:15:19.419Z,9.60
2018-12-22T19:17:46.915Z,9.60
2018-12-22T19:20:19.872Z,9.60
2018-12-22T19:22:47.359Z,9.60
2018-12-22T19:25:14.867Z,9.60
2018-12-22T19:27:42.356Z,9.60
2018-12-22T19:30:10.133Z,9.60
2018-12-22T19:32:37.645Z,9.60
2018-12-22T19:35:05.987Z,9.60
2018-12-22T19:37:33.499Z,9.60
2018-12-22T19:40:00.987Z,9.60
2018-12-22T19:42:28.482Z,9.60
2018-12-22T19:44:56.000Z,9.60
2018-12-22T19:47:23.568Z,9.70
2018-12-22T19:49:51.081Z,9.70
2018-12-22T19:52:18.570Z,9.70
2018-12-22T19:54:46.076Z,9.60
2018-12-22T19:57:13.563Z,9.70
2018-12-22T19:59:41.052Z,9.60
2018-12-22T20:02:08.564Z,9.60
2018-12-22T20:04:36.065Z,9.60
2018-12-22T20:07:03.660Z,9.60
2018-12-22T20:09:31.148Z,9.60
2018-12-22T20:11:58.660Z,9.60
2018-12-22T20:14:26.154Z,9.60
2018-12-22T20:16:53.644Z,9.60
2018-12-22T20:19:21.160Z,9.60
2018-12-22T20:21:48.658Z,9.60
2018-12-22T20:24:16.170Z,9.60
2018-12-22T20:26:43.662Z,9.60
2018-12-22T20:29:11.167Z,9.60
2018-12-22T20:31:38.650Z,9.60
2018-12-22T20:34:11.057Z,9.60
2018-12-22T20:36:35.684Z,9.60
2018-12-22T20:39:04.532Z,9.70
2018-12-22T20:41:32.050Z,9.70
2018-12-22T20:43:59.539Z,9.70
2018-12-22T20:46:27.058Z,9.70
2018-12-22T20:48:54.547Z,9.70
2018-12-22T20:51:22.035Z,9.70
2018-12-22T20:53:49.548Z,9.70
2018-12-22T20:56:17.035Z,9.70
2018-12-22T20:58:44.547Z,9.70
2018-12-22T21:01:12.043Z,9.70
2018-12-22T21:03:40.007Z,9.70
2018-12-22T21:06:12.231Z,9.70
2018-12-22T21:08:39.719Z,9.70
2018-12-22T21:11:07.313Z,9.60
2018-12-22T21:13:34.800Z,9.60
2018-12-22T21:16:02.295Z,9.60
2018-12-22T21:18:29.807Z,9.50
2018-12-22T21:20:57.296Z,9.50
2018-12-22T21:23:24.807Z,9.50
2018-12-22T21:25:52.295Z,9.40
2018-12-22T21:28:19.787Z,9.40
2018-12-22T21:30:47.295Z,9.40
2018-12-22T21:33:14.783Z,9.40
2018-12-22T21:35:52.792Z,9.40
2018-12-22T21:38:11.801Z,9.40
2018-12-22T21:40:39.318Z,9.40
2018-12-22T21:43:06.810Z,9.40
2018-12-22T21:45:34.299Z,9.40
2018-12-22T21:48:01.807Z,9.40
2018-12-22T21:50:29.295Z,9.40
2018-12-22T21:52:56.808Z,9.40
2018-12-22T21:55:24.553Z,9.40
2018-12-22T21:57:52.068Z,9.40
2018-12-22T22:00:19.559Z,9.40
2018-12-22T22:02:47.056Z,9.40
2018-12-22T22:05:14.569Z,9.40
2018-12-22T22:07:42.055Z,9.50
2018-12-22T22:10:09.564Z,9.50
2018-12-22T22:12:37.051Z,9.50
2018-12-22T22:15:05.120Z,9.50
2018-12-22T22:17:32.632Z,9.50
2018-12-22T22:20:00.169Z,9.50
2018-12-22T22:22:27.756Z,9.50
2018-12-22T22:24:55.247Z,9.50
2018-12-22T22:27:22.760Z,9.50
2018-12-22T22:29:50.250Z,9.50
2018-12-22T22:32:17.741Z,9.50
2018-12-22T22:34:45.724Z,9.50
2018-12-22T22:37:13.576Z,9.50
2018-12-22T22:39:41.101Z,9.50
2018-12-22T22:42:08.592Z,9.50
2018-12-22T22:44:36.079Z,9.50
2018-12-22T22:47:03.592Z,9.50
2018-12-22T22:49:31.084Z,9.40
2018-12-22T22:51:58.595Z,9.40
2018-12-22T22:54:26.087Z,9.40
2018-12-22T22:56:53.604Z,9.40
2018-12-22T22:59:21.100Z,9.40
2018-12-22T23:01:48.615Z,9.40
2018-12-22T23:04:16.103Z,9.50
2018-12-22T23:06:43.616Z,9.40
2018-12-22T23:09:11.968Z,9.40
2018-12-22T23:11:39.455Z,9.40
2018-12-22T23:14:06.984Z,9.50
2018-12-22T23:16:34.575Z,9.50
2018-12-22T23:19:02.091Z,9.40
2018-12-22T23:21:29.579Z,9.40
2018-12-22T23:23:57.068Z,9.40
2018-12-22T23:26:24.581Z,9.40
2018-12-22T23:28:52.072Z,9.40
2018-12-22T23:31:19.584Z,9.40
2018-12-22T23:33:47.070Z,9.30
2018-12-22T23:36:14.668Z,9.30
2018-12-22T23:38:42.340Z,9.30
2018-12-22T23:41:09.826Z,9.30
2018-12-22T23:43:37.344Z,9.30
2018-12-22T23:46:04.831Z,9.20
2018-12-22T23:48:32.335Z,9.20
2018-12-22T23:50:59.828Z,9.10
2018-12-22T23:53:27.320Z,9.10
2018-12-22T23:55:54.836Z,9.10
2018-12-22T23:58:22.328Z,9.10
